Lewistown Municipal Airport Lewistown US
ICAO: KLWT
IATA: LWT
Category: Medium
Scheduled Services: Yes

Elevation: 4170 ft
TransAlt. 18000 ft.

Airport Communications:
ASOS:118.375
GREAT FALLS RDO:122.35
CTAF/UNICOM:123

KLWT Zoom In..

If you have problems with the map follow the link
https://www.worldairports.se/pages/airport.php?
ICAO=KLWT

Runways:

(A) RW 03 length 5600 ft width 101 ft
---- / hdg 23

(B) RW 08 length 6100 ft width 100 ft
---- / hdg 75

(C) RW 13 length 4102 ft width 62 ft
---- / hdg 125

(D) RW 21 length 5600 ft width 101 ft
---- / hdg 203

(E) RW 26 length 6100 ft width 100 ft
---- / hdg 255

(F) RW 31 length 4102 ft width 62 ft
---- / hdg 305

Location; KLWT
Day. 18 / Time. 01.54 Zulu
* Altimeter: 30.24
* Temperature: -21° c. 5.8°f.
* Wind from: 290° Speed 06 kn.
Dewpoint: -22° c.
Visibility: 10 Statute Miles.
Clouds: Broken 1900 ft.
Clouds: Overcast 1000 ft.

KLWT 180154Z AUTO 29006KT 10SM BKN019 OVC100 M21/M22 A3024 RMK AO2 SLP340 T12061222


Wind From 290°
Speed 06 kn.

 
 
jpsmedia.com for Web Design worldairports.se 2019   terms of use